This is the latest recevied weather packets stored in our database for station/object SQ7ACP-3. If no packets are shown the sender has not sent any weather packets the latest 10 day(s).
| Time | Temp. | Humidity | Pressure | Rain* | Wind** | Luminosity | Snow |
|---|---|---|---|---|---|---|---|
| 1778101066 | 17.22° C | 62% | 1005.1 hPa | 0 mm | - | - | - |
| 1778100453 | 16.67° C | 66% | 1005.2 hPa | 0 mm | - | - | - |
| 1778099841 | 17.22° C | 67% | 1005.1 hPa | 0 mm | - | - | - |
| 1778099230 | 16.67° C | 68% | 1005.1 hPa | 0 mm | - | - | - |
| 1778098628 | 17.22° C | 71% | 1005.1 hPa | 0 mm | - | - | - |
| 1778098022 | 17.78° C | 69% | 1005.1 hPa | 0 mm | - | - | - |
| 1778096804 | 17.78° C | 67% | 1005.1 hPa | 0 mm | - | - | - |
| 1778096191 | 18.33° C | 66% | 1005.1 hPa | 0 mm | - | - | - |
| 1778095591 | 18.89° C | 65% | 1005.1 hPa | 0 mm | - | - | - |
| 1778094979 | 18.89° C | 62% | 1005.1 hPa | 0 mm | - | - | - |
| 1778094379 | 19.44° C | 61% | 1005 hPa | 0 mm | - | - | - |
| 1778093767 | 19.44° C | 60% | 1004.9 hPa | 0 mm | - | - | - |
| 1778093166 | 19.44° C | 60% | 1004.8 hPa | 0 mm | - | - | - |
| 1778092555 | 20° C | 58% | 1004.7 hPa | 0 mm | - | - | - |
| 1778091953 | 20° C | 57% | 1004.6 hPa | 0 mm | - | - | - |
| 1778091341 | 20.56° C | 55% | 1004.4 hPa | 0 mm | - | - | - |
| 1778090735 | 21.11° C | 53% | 1004.4 hPa | 0 mm | - | - | - |
| 1778088812 | 22.22° C | 46% | 1004.4 hPa | 0 mm | - | - | - |
| 1778088169 | 22.78° C | 46% | 1004.4 hPa | 0 mm | - | - | - |
| 1778087520 | 22.78° C | 45% | 1004.3 hPa | 0 mm | - | - | - |
| 1778086886 | 23.33° C | 44% | 1004.4 hPa | 0 mm | - | - | - |
| 1778086249 | 22.78° C | 45% | 1004.4 hPa | 0 mm | - | - | - |
| 1778085641 | 23.33° C | 44% | 1004.4 hPa | 0 mm | - | - | - |
| 1778085041 | 23.33° C | 44% | 1004.3 hPa | 0 mm | - | - | - |
| 1778084429 | 23.33° C | 44% | 1004.4 hPa | 0 mm | - | - | - |
* Rain latest hour (hover to see other rain measurements)
** Current wind speed in m/s (hover to see current wind gust speed)